sensor_id;sensor_type;location;lat;lon;timestamp;pressure;altitude;pressure_sealevel;temperature;humidity
48624;BME280;34422;45.802;16.114;2022-12-01T00:01:09;100759.50;;;3.34;100.00
48624;BME280;34422;45.802;16.114;2022-12-01T00:03:36;100760.13;;;3.28;100.00
48624;BME280;34422;45.802;16.114;2022-12-01T00:06:05;100760.94;;;3.28;100.00
48624;BME280;34422;45.802;16.114;2022-12-01T00:08:33;100759.81;;;3.31;100.00
48624;BME280;34422;45.802;16.114;2022-12-01T00:11:08;100751.09;;;3.29;100.00
48624;BME280;34422;45.802;16.114;2022-12-01T00:13:35;100756.44;;;3.29;100.00
48624;BME280;34422;45.802;16.114;2022-12-01T00:16:13;100750.94;;;3.30;100.00
48624;BME280;34422;45.802;16.114;2022-12-01T00:18:41;100761.78;;;3.29;100.00
48624;BME280;34422;45.802;16.114;2022-12-01T00:21:15;100747.06;;;3.25;100.00
48624;BME280;34422;45.802;16.114;2022-12-01T00:23:43;100753.94;;;3.27;100.00
48624;BME280;34422;45.802;16.114;2022-12-01T00:26:12;100747.56;;;3.28;100.00
48624;BME280;34422;45.802;16.114;2022-12-01T00:28:38;100742.72;;;3.24;100.00
48624;BME280;34422;45.802;16.114;2022-12-01T00:31:06;100739.03;;;3.25;100.00
48624;BME280;34422;45.802;16.114;2022-12-01T00:33:33;100747.06;;;3.25;100.00
48624;BME280;34422;45.802;16.114;2022-12-01T00:36:00;100750.44;;;3.27;100.00
48624;BME280;34422;45.802;16.114;2022-12-01T00:38:27;100745.22;;;3.25;100.00
48624;BME280;34422;45.802;16.114;2022-12-01T00:40:54;100742.56;;;3.25;100.00
48624;BME280;34422;45.802;16.114;2022-12-01T00:43:21;100742.91;;;3.30;100.00
48624;BME280;34422;45.802;16.114;2022-12-01T00:45:48;100748.13;;;3.32;100.00
48624;BME280;34422;45.802;16.114;2022-12-01T00:48:15;100756.13;;;3.32;100.00
48624;BME280;34422;45.802;16.114;2022-12-01T00:50:42;100753.16;;;3.35;100.00
48624;BME280;34422;45.802;16.114;2022-12-01T00:53:09;100745.75;;;3.29;100.00
48624;BME280;34422;45.802;16.114;2022-12-01T00:55:36;100751.47;;;3.34;100.00
48624;BME280;34422;45.802;16.114;2022-12-01T00:58:03;100763.16;;;3.33;100.00
48624;BME280;34422;45.802;16.114;2022-12-01T01:00:30;100750.50;;;3.35;100.00
48624;BME280;34422;45.802;16.114;2022-12-01T01:02:57;100759.88;;;3.39;100.00
48624;BME280;34422;45.802;16.114;2022-12-01T01:05:23;100754.53;;;3.39;100.00
48624;BME280;34422;45.802;16.114;2022-12-01T01:07:50;100755.22;;;3.41;100.00
48624;BME280;34422;45.802;16.114;2022-12-01T01:10:17;100755.53;;;3.38;100.00
48624;BME280;34422;45.802;16.114;2022-12-01T01:12:44;100751.88;;;3.39;100.00
48624;BME280;34422;45.802;16.114;2022-12-01T01:15:10;100762.56;;;3.39;100.00
48624;BME280;34422;45.802;16.114;2022-12-01T01:17:37;100755.22;;;3.41;100.00
48624;BME280;34422;45.802;16.114;2022-12-01T01:20:05;100763.06;;;3.42;100.00
48624;BME280;34422;45.802;16.114;2022-12-01T01:22:34;100753.22;;;3.43;100.00
48624;BME280;34422;45.802;16.114;2022-12-01T01:25:01;100753.22;;;3.43;100.00
48624;BME280;34422;45.802;16.114;2022-12-01T01:27:27;100758.56;;;3.43;100.00
48624;BME280;34422;45.802;16.114;2022-12-01T01:29:54;100760.59;;;3.41;100.00
48624;BME280;34422;45.802;16.114;2022-12-01T01:32:21;100762.09;;;3.43;100.00
48624;BME280;34422;45.802;16.114;2022-12-01T01:34:48;100747.88;;;3.43;100.00
48624;BME280;34422;45.802;16.114;2022-12-01T01:37:14;100753.22;;;3.43;100.00
48624;BME280;34422;45.802;16.114;2022-12-01T01:39:41;100749.03;;;3.40;100.00
48624;BME280;34422;45.802;16.114;2022-12-01T01:42:11;100743.69;;;3.40;100.00
48624;BME280;34422;45.802;16.114;2022-12-01T01:44:53;100754.75;;;3.45;100.00
48624;BME280;34422;45.802;16.114;2022-12-01T01:47:27;100752.06;;;3.45;100.00
48624;BME280;34422;45.802;16.114;2022-12-01T01:49:56;100751.22;;;3.45;100.00
48624;BME280;34422;45.802;16.114;2022-12-01T01:52:26;100739.38;;;3.47;100.00
48624;BME280;34422;45.802;16.114;2022-12-01T01:54:54;100743.69;;;3.40;100.00
48624;BME280;34422;45.802;16.114;2022-12-01T01:57:28;100744.53;;;3.41;100.00
48624;BME280;34422;45.802;16.114;2022-12-01T02:00:02;100744.19;;;3.44;100.00
48624;BME280;34422;45.802;16.114;2022-12-01T02:02:29;100744.53;;;3.41;100.00
48624;BME280;34422;45.802;16.114;2022-12-01T02:05:00;100750.19;;;3.38;100.00
48624;BME280;34422;45.802;16.114;2022-12-01T02:07:28;100751.53;;;3.42;100.00
48624;BME280;34422;45.802;16.114;2022-12-01T02:09:55;100756.38;;;3.38;100.00
48624;BME280;34422;45.802;16.114;2022-12-01T02:12:46;100751.88;;;3.39;100.00
48624;BME280;34422;45.802;16.114;2022-12-01T02:18:21;100743.50;;;3.42;100.00
48624;BME280;34422;45.802;16.114;2022-12-01T02:24:30;100735.34;;;3.43;100.00
48624;BME280;34422;45.802;16.114;2022-12-01T02:30:06;100731.81;;;3.43;100.00
48624;BME280;34422;45.802;16.114;2022-12-01T02:32:46;100726.16;;;3.46;100.00
48624;BME280;34422;45.802;16.114;2022-12-01T02:35:23;100731.50;;;3.46;100.00
48624;BME280;34422;45.802;16.114;2022-12-01T02:38:07;100736.88;;;3.46;100.00
48624;BME280;34422;45.802;16.114;2022-12-01T02:46:14;100726.16;;;3.46;100.00
48624;BME280;34422;45.802;16.114;2022-12-01T02:48:47;100733.72;;;3.50;100.00
48624;BME280;34422;45.802;16.114;2022-12-01T02:51:19;100734.88;;;3.48;100.00
48624;BME280;34422;45.802;16.114;2022-12-01T02:53:48;100729.53;;;3.48;100.00
48624;BME280;34422;45.802;16.114;2022-12-01T02:56:19;100727.84;;;3.47;100.00
48624;BME280;34422;45.802;16.114;2022-12-01T02:58:46;100724.03;;;3.49;100.00
48624;BME280;34422;45.802;16.114;2022-12-01T03:04:01;100722.72;;;3.53;100.00
48624;BME280;34422;45.802;16.114;2022-12-01T03:06:50;100715.69;;;3.52;100.00
48624;BME280;34422;45.802;16.114;2022-12-01T03:09:55;100717.88;;;3.57;100.00
48624;BME280;34422;45.802;16.114;2022-12-01T03:18:14;100714.22;;;3.58;100.00
48624;BME280;34422;45.802;16.114;2022-12-01T03:21:09;100705.19;;;3.59;100.00
48624;BME280;34422;45.802;16.114;2022-12-01T03:23:42;100701.81;;;3.57;100.00
48624;BME280;34422;45.802;16.114;2022-12-01T03:26:14;100715.59;;;3.62;100.00
48624;BME280;34422;45.802;16.114;2022-12-01T03:28:45;100708.56;;;3.61;100.00
48624;BME280;34422;45.802;16.114;2022-12-01T03:31:17;100711.22;;;3.61;100.00
48624;BME280;34422;45.802;16.114;2022-12-01T03:33:50;100706.03;;;3.60;100.00
48624;BME280;34422;45.802;16.114;2022-12-01T03:36:27;100713.22;;;3.59;100.00
48624;BME280;34422;45.802;16.114;2022-12-01T03:38:58;100706.88;;;3.60;100.00
48624;BME280;34422;45.802;16.114;2022-12-01T03:41:33;100717.25;;;3.63;100.00
48624;BME280;34422;45.802;16.114;2022-12-01T03:44:06;100711.06;;;3.63;100.00
48624;BME280;34422;45.802;16.114;2022-12-01T03:46:44;100711.38;;;3.60;100.00
48624;BME280;34422;45.802;16.114;2022-12-01T03:49:13;100714.53;;;3.55;100.00
48624;BME280;34422;45.802;16.114;2022-12-01T03:54:41;100719.47;;;3.68;100.00
48624;BME280;34422;45.802;16.114;2022-12-01T03:57:28;100719.25;;;3.61;100.00
48624;BME280;34422;45.802;16.114;2022-12-01T03:59:56;100714.06;;;3.60;100.00
48624;BME280;34422;45.802;16.114;2022-12-01T04:02:23;100713.38;;;3.57;100.00
48624;BME280;34422;45.802;16.114;2022-12-01T04:04:53;100710.84;;;3.56;100.00
48624;BME280;34422;45.802;16.114;2022-12-01T04:07:20;100719.56;;;3.58;100.00
48624;BME280;34422;45.802;16.114;2022-12-01T04:09:48;100718.41;;;3.61;100.00
48624;BME280;34422;45.802;16.114;2022-12-01T04:12:15;100712.22;;;3.60;100.00
48624;BME280;34422;45.802;16.114;2022-12-01T04:15:00;100718.25;;;3.62;100.00
48624;BME280;34422;45.802;16.114;2022-12-01T04:17:28;100712.91;;;3.62;100.00
48624;BME280;34422;45.802;16.114;2022-12-01T04:19:55;100718.94;;;3.64;100.00
48624;BME280;34422;45.802;16.114;2022-12-01T04:22:22;100718.94;;;3.64;100.00
48624;BME280;34422;45.802;16.114;2022-12-01T04:24:50;100718.94;;;3.64;100.00
48624;BME280;34422;45.802;16.114;2022-12-01T04:27:17;100713.91;;;3.61;100.00
48624;BME280;34422;45.802;16.114;2022-12-01T04:29:44;100724.28;;;3.64;100.00
48624;BME280;34422;45.802;16.114;2022-12-01T04:32:11;100722.09;;;3.60;100.00
48624;BME280;34422;45.802;16.114;2022-12-01T04:34:39;100724.59;;;3.61;100.00
48624;BME280;34422;45.802;16.114;2022-12-01T04:37:06;100731.63;;;3.62;100.00
48624;BME280;34422;45.802;16.114;2022-12-01T04:39:33;100733.63;;;3.60;100.00
48624;BME280;34422;45.802;16.114;2022-12-01T04:42:00;100731.09;;;3.58;100.00
48624;BME280;34422;45.802;16.114;2022-12-01T04:44:27;100735.31;;;3.61;100.00
48624;BME280;34422;45.802;16.114;2022-12-01T04:46:54;100732.78;;;3.60;100.00
48624;BME280;34422;45.802;16.114;2022-12-01T04:49:21;100737.59;;;3.56;100.00
48624;BME280;34422;45.802;16.114;2022-12-01T04:51:48;100737.16;;;3.61;100.00
48624;BME280;34422;45.802;16.114;2022-12-01T04:54:16;100741.66;;;3.60;100.00
48624;BME280;34422;45.802;16.114;2022-12-01T04:56:43;100735.63;;;3.58;100.00
48624;BME280;34422;45.802;16.114;2022-12-01T04:59:10;100744.63;;;3.57;100.00
48624;BME280;34422;45.802;16.114;2022-12-01T05:01:37;100741.31;;;3.55;100.00
48624;BME280;34422;45.802;16.114;2022-12-01T05:04:10;100739.28;;;3.57;100.00
48624;BME280;34422;45.802;16.114;2022-12-01T05:06:37;100733.94;;;3.57;100.00
48624;BME280;34422;45.802;16.114;2022-12-01T05:09:05;100734.72;;;3.49;100.00
48624;BME280;34422;45.802;16.114;2022-12-01T05:11:32;100730.91;;;3.52;100.00
48624;BME280;34422;45.802;16.114;2022-12-01T05:13:59;100741.81;;;3.58;100.00
48624;BME280;34422;45.802;16.114;2022-12-01T05:16:29;100739.63;;;3.54;100.00
48624;BME280;34422;45.802;16.114;2022-12-01T05:18:59;100740.63;;;3.53;100.00
48624;BME280;34422;45.802;16.114;2022-12-01T05:21:47;100741.59;;;3.52;100.00
48624;BME280;34422;45.802;16.114;2022-12-01T05:24:15;100739.44;;;3.55;100.00
48624;BME280;34422;45.802;16.114;2022-12-01T05:26:43;100740.47;;;3.54;100.00
48624;BME280;34422;45.802;16.114;2022-12-01T05:29:11;100741.59;;;3.52;100.00
48624;BME280;34422;45.802;16.114;2022-12-01T05:31:38;100742.28;;;3.54;100.00
48624;BME280;34422;45.802;16.114;2022-12-01T05:34:06;100733.88;;;3.49;100.00
48624;BME280;34422;45.802;16.114;2022-12-01T05:36:33;100734.88;;;3.48;100.00
48624;BME280;34422;45.802;16.114;2022-12-01T05:39:00;100739.22;;;3.49;100.00
48624;BME280;34422;45.802;16.114;2022-12-01T05:41:26;100735.56;;;3.50;100.00
48624;BME280;34422;45.802;16.114;2022-12-01T05:43:53;100726.31;;;3.44;100.00
48624;BME280;34422;45.802;16.114;2022-12-01T05:46:21;100739.94;;;3.51;100.00
48624;BME280;34422;45.802;16.114;2022-12-01T05:48:47;100735.56;;;3.50;100.00
48624;BME280;34422;45.802;16.114;2022-12-01T05:51:15;100736.56;;;3.49;100.00
48624;BME280;34422;45.802;16.114;2022-12-01T05:53:43;100737.56;;;3.48;100.00
48624;BME280;34422;45.802;16.114;2022-12-01T05:56:10;100743.91;;;3.47;100.00
48624;BME280;34422;45.802;16.114;2022-12-01T05:58:37;100742.22;;;3.46;100.00
48624;BME280;34422;45.802;16.114;2022-12-01T06:01:03;100748.09;;;3.49;100.00
48624;BME280;34422;45.802;16.114;2022-12-01T06:03:30;100741.91;;;3.49;100.00
48624;BME280;34422;45.802;16.114;2022-12-01T06:05:58;100745.28;;;3.51;100.00
48624;BME280;34422;45.802;16.114;2022-12-01T06:08:25;100744.88;;;3.46;100.00
48624;BME280;34422;45.802;16.114;2022-12-01T06:10:52;100748.25;;;3.48;100.00
48624;BME280;34422;45.802;16.114;2022-12-01T06:13:18;100746.88;;;3.44;100.00
48624;BME280;34422;45.802;16.114;2022-12-01T06:18:24;100743.28;;;3.53;100.00
48624;BME280;34422;45.802;16.114;2022-12-01T06:20:51;100754.69;;;3.55;100.00
48624;BME280;34422;45.802;16.114;2022-12-01T06:23:19;100752.31;;;3.52;100.00
48624;BME280;34422;45.802;16.114;2022-12-01T06:25:46;100754.69;;;3.55;100.00
48624;BME280;34422;45.802;16.114;2022-12-01T06:28:12;100756.34;;;3.56;100.00
48624;BME280;34422;45.802;16.114;2022-12-01T06:30:39;100749.47;;;3.53;100.00
48624;BME280;34422;45.802;16.114;2022-12-01T06:33:06;100757.66;;;3.52;100.00
48624;BME280;34422;45.802;16.114;2022-12-01T06:35:34;100762.16;;;3.51;100.00
48624;BME280;34422;45.802;16.114;2022-12-01T06:38:01;100756.34;;;3.56;100.00
48624;BME280;34422;45.802;16.114;2022-12-01T06:40:28;100769.91;;;3.54;100.00
48624;BME280;34422;45.802;16.114;2022-12-01T06:42:58;100759.00;;;3.56;100.00
48624;BME280;34422;45.802;16.114;2022-12-01T06:45:27;100771.72;;;3.54;100.00
48624;BME280;34422;45.802;16.114;2022-12-01T06:47:54;100767.72;;;3.58;100.00
48624;BME280;34422;45.802;16.114;2022-12-01T06:50:22;100773.06;;;3.58;100.00
48624;BME280;34422;45.802;16.114;2022-12-01T06:52:50;100772.09;;;3.59;100.00
48624;BME280;34422;45.802;16.114;2022-12-01T06:55:18;100774.56;;;3.52;100.00
48624;BME280;34422;45.802;16.114;2022-12-01T06:57:45;100776.75;;;3.57;100.00
48624;BME280;34422;45.802;16.114;2022-12-01T07:00:12;100781.44;;;3.55;100.00
48624;BME280;34422;45.802;16.114;2022-12-01T07:02:39;100774.22;;;3.55;100.00
48624;BME280;34422;45.802;16.114;2022-12-01T07:05:06;100782.44;;;3.54;100.00
48624;BME280;34422;45.802;16.114;2022-12-01T07:07:37;100793.13;;;3.54;100.00
48624;BME280;34422;45.802;16.114;2022-12-01T07:10:05;100786.09;;;3.53;100.00
48624;BME280;34422;45.802;16.114;2022-12-01T07:12:33;100789.91;;;3.50;100.00
48624;BME280;34422;45.802;16.114;2022-12-01T07:15:00;100793.13;;;3.54;100.00
48624;BME280;34422;45.802;16.114;2022-12-01T07:17:27;100796.81;;;3.53;100.00
48624;BME280;34422;45.802;16.114;2022-12-01T07:19:55;100800.47;;;3.52;100.00
48624;BME280;34422;45.802;16.114;2022-12-01T07:22:22;100798.47;;;3.54;100.00
48624;BME280;34422;45.802;16.114;2022-12-01T07:24:49;100802.44;;;3.50;100.00
48624;BME280;34422;45.802;16.114;2022-12-01T07:27:16;100802.16;;;3.53;100.00
48624;BME280;34422;45.802;16.114;2022-12-01T07:29:42;100803.91;;;3.62;100.00
48624;BME280;34422;45.802;16.114;2022-12-01T07:32:09;100794.81;;;3.55;100.00
48624;BME280;34422;45.802;16.114;2022-12-01T07:34:36;100804.13;;;3.51;100.00
48624;BME280;34422;45.802;16.114;2022-12-01T07:37:03;100805.81;;;3.52;100.00
48624;BME280;34422;45.802;16.114;2022-12-01T07:39:29;100804.13;;;3.51;100.00
48624;BME280;34422;45.802;16.114;2022-12-01T07:41:56;100798.47;;;3.54;100.00
48624;BME280;34422;45.802;16.114;2022-12-01T07:44:23;100805.81;;;3.52;100.00
48624;BME280;34422;45.802;16.114;2022-12-01T07:46:50;100806.66;;;3.52;100.00
48624;BME280;34422;45.802;16.114;2022-12-01T07:49:16;100810.88;;;3.55;100.00
48624;BME280;34422;45.802;16.114;2022-12-01T07:51:43;100814.53;;;3.54;100.00
48624;BME280;34422;45.802;16.114;2022-12-01T07:54:10;100812.16;;;3.51;100.00
48624;BME280;34422;45.802;16.114;2022-12-01T07:56:40;100816.53;;;3.52;100.00
48624;BME280;34422;45.802;16.114;2022-12-01T07:59:06;100819.56;;;3.57;100.00
48624;BME280;34422;45.802;16.114;2022-12-01T08:01:34;100816.22;;;3.55;100.00
48624;BME280;34422;45.802;16.114;2022-12-01T08:04:00;100821.25;;;3.58;100.00
48624;BME280;34422;45.802;16.114;2022-12-01T08:06:27;100823.22;;;3.56;100.00
48624;BME280;34422;45.802;16.114;2022-12-01T08:08:54;100821.25;;;3.58;100.00
48624;BME280;34422;45.802;16.114;2022-12-01T08:11:23;100822.22;;;3.57;100.00
48624;BME280;34422;45.802;16.114;2022-12-01T08:13:52;100816.22;;;3.55;100.00
48624;BME280;34422;45.802;16.114;2022-12-01T08:16:21;100822.94;;;3.59;100.00
48624;BME280;34422;45.802;16.114;2022-12-01T08:18:48;100821.38;;;3.56;100.00
48624;BME280;34422;45.802;16.114;2022-12-01T08:21:17;100824.41;;;3.53;100.00
48624;BME280;34422;45.802;16.114;2022-12-01T08:23:45;100829.25;;;3.58;100.00
48624;BME280;34422;45.802;16.114;2022-12-01T08:26:16;100829.75;;;3.53;100.00
48624;BME280;34422;45.802;16.114;2022-12-01T08:28:44;100823.84;;;3.50;100.00
48624;BME280;34422;45.802;16.114;2022-12-01T08:31:14;100841.28;;;3.54;100.00
48624;BME280;34422;45.802;16.114;2022-12-01T08:33:41;100833.88;;;3.48;100.00
48624;BME280;34422;45.802;16.114;2022-12-01T08:36:08;100830.88;;;3.51;100.00
48624;BME280;34422;45.802;16.114;2022-12-01T08:38:35;100833.28;;;3.54;100.00
48624;BME280;34422;45.802;16.114;2022-12-01T08:41:08;100825.91;;;3.56;100.00
48624;BME280;34422;45.802;16.114;2022-12-01T08:43:35;100831.59;;;3.53;100.00
48624;BME280;34422;45.802;16.114;2022-12-01T08:46:07;100831.25;;;3.56;100.00
48624;BME280;34422;45.802;16.114;2022-12-01T08:48:35;100832.56;;;3.52;100.00
48624;BME280;34422;45.802;16.114;2022-12-01T08:51:07;100832.56;;;3.52;100.00
48624;BME280;34422;45.802;16.114;2022-12-01T08:53:36;100828.13;;;3.61;100.00
48624;BME280;34422;45.802;16.114;2022-12-01T08:56:16;100840.38;;;3.63;100.00
48624;BME280;34422;45.802;16.114;2022-12-01T08:58:44;100831.34;;;3.64;100.00
48624;BME280;34422;45.802;16.114;2022-12-01T09:01:13;100836.41;;;3.67;100.00
48624;BME280;34422;45.802;16.114;2022-12-01T09:03:41;100839.06;;;3.67;100.00
48624;BME280;34422;45.802;16.114;2022-12-01T09:06:12;100840.56;;;3.70;100.00
48624;BME280;34422;45.802;16.114;2022-12-01T09:08:39;100837.59;;;3.73;100.00
48624;BME280;34422;45.802;16.114;2022-12-01T09:11:10;100838.81;;;3.78;100.00
48624;BME280;34422;45.802;16.114;2022-12-01T09:13:38;100830.41;;;3.73;100.00
48624;BME280;34422;45.802;16.114;2022-12-01T09:16:09;100834.75;;;3.74;100.00
48624;BME280;34422;45.802;16.114;2022-12-01T09:18:37;100831.78;;;3.77;100.00
48624;BME280;34422;45.802;16.114;2022-12-01T09:21:12;100839.38;;;3.82;100.00
48624;BME280;34422;45.802;16.114;2022-12-01T09:23:39;100843.25;;;3.87;100.00
48624;BME280;34422;45.802;16.114;2022-12-01T09:26:07;100839.19;;;3.83;100.00
48624;BME280;34422;45.802;16.114;2022-12-01T09:28:35;100841.56;;;3.86;100.00
48624;BME280;34422;45.802;16.114;2022-12-01T09:31:04;100841.84;;;3.83;100.00
48624;BME280;34422;45.802;16.114;2022-12-01T09:33:31;100841.56;;;3.86;100.00
48624;BME280;34422;45.802;16.114;2022-12-01T09:36:00;100842.69;;;3.84;100.00
48624;BME280;34422;45.802;16.114;2022-12-01T09:38:28;100839.13;;;3.93;100.00
48624;BME280;34422;45.802;16.114;2022-12-01T09:40:55;100831.38;;;3.90;100.00
48624;BME280;34422;45.802;16.114;2022-12-01T09:43:25;100830.09;;;3.94;100.00
48624;BME280;34422;45.802;16.114;2022-12-01T09:45:56;100826.06;;;3.98;100.00
48624;BME280;34422;45.802;16.114;2022-12-01T09:48:32;100820.88;;;3.97;100.00
48624;BME280;34422;45.802;16.114;2022-12-01T09:51:19;100820.50;;;4.09;100.00
48624;BME280;34422;45.802;16.114;2022-12-01T09:53:51;100814.91;;;4.03;100.00
48624;BME280;34422;45.802;16.114;2022-12-01T09:56:23;100821.00;;;4.13;100.00
48624;BME280;34422;45.802;16.114;2022-12-01T09:59:01;100829.72;;;4.15;100.00
48624;BME280;34422;45.802;16.114;2022-12-01T10:01:38;100822.38;;;4.17;100.00
48624;BME280;34422;45.802;16.114;2022-12-01T10:04:12;100814.19;;;4.18;100.00
48624;BME280;34422;45.802;16.114;2022-12-01T10:07:02;100816.69;;;4.20;100.00
48624;BME280;34422;45.802;16.114;2022-12-01T10:09:48;100816.88;;;4.26;100.00
48624;BME280;34422;45.802;16.114;2022-12-01T10:12:19;100807.84;;;4.27;100.00
48624;BME280;34422;45.802;16.114;2022-12-01T10:14:48;100812.38;;;4.27;100.00
48624;BME280;34422;45.802;16.114;2022-12-01T10:17:39;100810.38;;;4.29;100.00
48624;BME280;34422;45.802;16.114;2022-12-01T10:20:15;100806.44;;;4.41;100.00
48624;BME280;34422;45.802;16.114;2022-12-01T10:25:23;100798.91;;;4.45;100.00
48624;BME280;34422;45.802;16.114;2022-12-01T10:30:47;100808.47;;;4.47;100.00
48624;BME280;34422;45.802;16.114;2022-12-01T10:33:24;100804.47;;;4.51;100.00
48624;BME280;34422;45.802;16.114;2022-12-01T10:35:52;100808.81;;;4.52;100.00
48624;BME280;34422;45.802;16.114;2022-12-01T10:38:27;100807.81;;;4.53;100.00
48624;BME280;34422;45.802;16.114;2022-12-01T10:40:58;100798.78;;;4.54;100.00
48624;BME280;34422;45.802;16.114;2022-12-01T10:43:42;100796.25;;;4.45;100.00
48624;BME280;34422;45.802;16.114;2022-12-01T10:46:24;100792.09;;;4.50;100.00
48624;BME280;34422;45.802;16.114;2022-12-01T10:48:58;100790.41;;;4.49;100.00
48624;BME280;34422;45.802;16.114;2022-12-01T10:51:26;100792.75;;;4.52;100.00
48624;BME280;34422;45.802;16.114;2022-12-01T10:53:57;100786.91;;;4.57;100.00
48624;BME280;34422;45.802;16.114;2022-12-01T10:56:25;100781.06;;;4.61;100.00
48624;BME280;34422;45.802;16.114;2022-12-01T10:58:56;100776.41;;;4.63;100.00
48624;BME280;34422;45.802;16.114;2022-12-01T11:01:27;100779.41;;;4.69;100.00
48624;BME280;34422;45.802;16.114;2022-12-01T11:06:31;100770.03;;;4.64;100.00
48624;BME280;34422;45.802;16.114;2022-12-01T11:09:04;100780.06;;;4.62;100.00
48624;BME280;34422;45.802;16.114;2022-12-01T11:11:39;100773.03;;;4.61;100.00
48624;BME280;34422;45.802;16.114;2022-12-01T11:14:16;100780.06;;;4.62;100.00
48624;BME280;34422;45.802;16.114;2022-12-01T11:16:46;100774.72;;;4.62;100.00
48624;BME280;34422;45.802;16.114;2022-12-01T11:21:54;100772.53;;;4.66;100.00
48624;BME280;34422;45.802;16.114;2022-12-01T11:24:43;100779.41;;;4.69;100.00
48624;BME280;34422;45.802;16.114;2022-12-01T11:29:40;100766.38;;;4.74;100.00
48624;BME280;34422;45.802;16.114;2022-12-01T11:32:32;100764.69;;;4.73;100.00
48624;BME280;34422;45.802;16.114;2022-12-01T11:35:15;100765.69;;;4.72;100.00
48624;BME280;34422;45.802;16.114;2022-12-01T11:37:45;100769.75;;;4.76;100.00
48624;BME280;34422;45.802;16.114;2022-12-01T11:42:59;100772.75;;;4.81;100.00
48624;BME280;34422;45.802;16.114;2022-12-01T11:45:30;100765.91;;;4.78;100.00
48624;BME280;34422;45.802;16.114;2022-12-01T11:50:43;100769.94;;;4.90;100.00
48624;BME280;34422;45.802;16.114;2022-12-01T11:53:43;100775.63;;;4.95;100.00
48624;BME280;34422;45.802;16.114;2022-12-01T11:56:17;100774.31;;;4.91;100.00
48624;BME280;34422;45.802;16.114;2022-12-01T11:58:48;100761.22;;;4.96;100.00
48624;BME280;34422;45.802;16.114;2022-12-01T12:01:39;100763.22;;;4.94;100.00
48624;BME280;34422;45.802;16.114;2022-12-01T12:04:25;100766.28;;;4.99;100.00
48624;BME280;34422;45.802;16.114;2022-12-01T12:15:35;100759.59;;;5.04;100.00
48624;BME280;34422;45.802;16.114;2022-12-01T12:18:47;100762.75;;;5.07;100.00
48624;BME280;34422;45.802;16.114;2022-12-01T12:26:39;100755.06;;;5.12;100.00
48624;BME280;34422;45.802;16.114;2022-12-01T12:29:32;100753.41;;;5.19;100.00
48624;BME280;34422;45.802;16.114;2022-12-01T12:32:24;100749.03;;;5.26;100.00
48624;BME280;34422;45.802;16.114;2022-12-01T12:44:10;100746.53;;;5.17;100.00
48624;BME280;34422;45.802;16.114;2022-12-01T12:46:54;100746.38;;;5.18;100.00
48624;BME280;34422;45.802;16.114;2022-12-01T12:49:30;100759.41;;;5.21;100.00
48624;BME280;34422;45.802;16.114;2022-12-01T12:52:05;100756.56;;;5.23;100.00
48624;BME280;34422;45.802;16.114;2022-12-01T12:57:33;100748.38;;;5.24;100.00
48624;BME280;34422;45.802;16.114;2022-12-01T13:00:25;100744.69;;;5.25;100.00
48624;BME280;34422;45.802;16.114;2022-12-01T13:03:01;100756.44;;;5.32;100.00
48624;BME280;34422;45.802;16.114;2022-12-01T13:05:41;100748.88;;;5.28;100.00
48624;BME280;34422;45.802;16.114;2022-12-01T13:08:15;100742.34;;;5.30;100.00
48624;BME280;34422;45.802;16.114;2022-12-01T13:10:54;100748.88;;;5.28;100.00
48624;BME280;34422;45.802;16.114;2022-12-01T13:13:30;100756.44;;;5.32;100.00
48624;BME280;34422;45.802;16.114;2022-12-01T13:16:01;100760.94;;;5.24;100.00
48624;BME280;34422;45.802;16.114;2022-12-01T13:18:32;100748.69;;;5.21;100.00
48624;BME280;34422;45.802;16.114;2022-12-01T13:21:03;100749.53;;;5.22;100.00
48624;BME280;34422;45.802;16.114;2022-12-01T13:23:32;100748.00;;;5.11;100.00
48624;BME280;34422;45.802;16.114;2022-12-01T13:26:04;100750.53;;;5.13;100.00
48624;BME280;34422;45.802;16.114;2022-12-01T13:28:37;100744.66;;;5.09;100.00
48624;BME280;34422;45.802;16.114;2022-12-01T13:31:11;100750.03;;;5.09;100.00
48624;BME280;34422;45.802;16.114;2022-12-01T13:33:58;100748.69;;;5.05;100.00
48624;BME280;34422;45.802;16.114;2022-12-01T13:36:28;100756.06;;;5.11;100.00
48624;BME280;34422;45.802;16.114;2022-12-01T13:44:06;100752.06;;;5.15;100.00
48624;BME280;34422;45.802;16.114;2022-12-01T13:55:24;100752.38;;;5.20;100.00
48624;BME280;34422;45.802;16.114;2022-12-01T14:00:28;100751.41;;;5.29;100.00
48624;BME280;34422;45.802;16.114;2022-12-01T14:08:26;100742.31;;;5.22;100.00
48624;BME280;34422;45.802;16.114;2022-12-01T14:11:00;100748.38;;;5.24;100.00
48624;BME280;34422;45.802;16.114;2022-12-01T14:13:29;100747.69;;;5.22;100.00
48624;BME280;34422;45.802;16.114;2022-12-01T14:15:58;100742.31;;;5.22;100.00
48624;BME280;34422;45.802;16.114;2022-12-01T14:20:56;100746.34;;;5.10;100.00
48624;BME280;34422;45.802;16.114;2022-12-01T14:23:27;100740.13;;;5.10;100.00
48624;BME280;34422;45.802;16.114;2022-12-01T14:26:18;100740.66;;;5.13;100.00
48624;BME280;34422;45.802;16.114;2022-12-01T14:34:02;100747.00;;;5.12;100.00
48624;BME280;34422;45.802;16.114;2022-12-01T14:39:12;100751.03;;;5.08;100.00
48624;BME280;34422;45.802;16.114;2022-12-01T14:47:21;100763.09;;;5.04;100.00
48624;BME280;34422;45.802;16.114;2022-12-01T14:49:54;100748.69;;;5.05;100.00
48624;BME280;34422;45.802;16.114;2022-12-01T14:54:56;100752.69;;;5.01;100.00